Terminal Aerodrome Forecast
Issued by NWS Jacksonville, FL

Home | Current Version | Previous Version | Text Only | Print | Product List | Glossary On
Versions: 1 2 3 4 5 6 7 8 9 10 11 12 13 14 15 16 17 18 19 20 21 22 23 24 25 26 27 28 29 30 31 32 33 34 35 36 37 38 39 40 41 42 43 44 45 46 47
101
FTUS42 KJAX 201959 AAA
TAFSSI
TAF AMD
KSSI 201959Z 2020/2118 29018G28KT P6SM SCT030
     FM202200 28014G24KT P6SM SKC
     FM210000 28010KT P6SM SKC
     FM210800 30006KT P6SM SKC
     FM211400 34007KT P6SM SKC=

USA.gov is the U.S. government's official web portal to all federal, state and local government web resources and services.